sensor_id;sensor_type;location;lat;lon;timestamp;P1;durP1;ratioP1;P2;durP2;ratioP2
8225;SDS011;4154;48.810;9.012;2023-04-03T00:00:49;2.93;;;2.30;;
8225;SDS011;4154;48.810;9.012;2023-04-03T00:03:16;3.37;;;2.20;;
8225;SDS011;4154;48.810;9.012;2023-04-03T00:05:44;2.50;;;2.30;;
8225;SDS011;4154;48.810;9.012;2023-04-03T00:08:10;2.97;;;2.30;;
8225;SDS011;4154;48.810;9.012;2023-04-03T00:10:36;3.03;;;2.10;;
8225;SDS011;4154;48.810;9.012;2023-04-03T00:13:03;2.80;;;2.30;;
8225;SDS011;4154;48.810;9.012;2023-04-03T00:15:30;2.67;;;2.47;;
8225;SDS011;4154;48.810;9.012;2023-04-03T00:17:56;3.03;;;2.50;;
8225;SDS011;4154;48.810;9.012;2023-04-03T00:20:22;2.40;;;2.17;;
8225;SDS011;4154;48.810;9.012;2023-04-03T00:22:48;3.53;;;2.20;;
8225;SDS011;4154;48.810;9.012;2023-04-03T00:25:13;3.30;;;2.50;;
8225;SDS011;4154;48.810;9.012;2023-04-03T00:27:39;2.80;;;2.47;;
8225;SDS011;4154;48.810;9.012;2023-04-03T00:30:06;2.30;;;2.10;;
8225;SDS011;4154;48.810;9.012;2023-04-03T00:32:43;2.40;;;2.20;;
8225;SDS011;4154;48.810;9.012;2023-04-03T00:35:09;2.50;;;2.30;;
8225;SDS011;4154;48.810;9.012;2023-04-03T00:37:36;2.60;;;2.40;;
8225;SDS011;4154;48.810;9.012;2023-04-03T00:40:02;3.53;;;2.67;;
8225;SDS011;4154;48.810;9.012;2023-04-03T00:42:30;2.90;;;2.43;;
8225;SDS011;4154;48.810;9.012;2023-04-03T00:47:22;2.90;;;2.53;;
8225;SDS011;4154;48.810;9.012;2023-04-03T00:49:49;2.50;;;2.30;;
8225;SDS011;4154;48.810;9.012;2023-04-03T00:52:17;3.20;;;2.40;;
8225;SDS011;4154;48.810;9.012;2023-04-03T00:54:47;2.83;;;2.47;;
8225;SDS011;4154;48.810;9.012;2023-04-03T00:57:15;2.47;;;2.20;;
8225;SDS011;4154;48.810;9.012;2023-04-03T00:59:43;2.27;;;2.07;;
8225;SDS011;4154;48.810;9.012;2023-04-03T01:02:18;2.57;;;2.37;;
8225;SDS011;4154;48.810;9.012;2023-04-03T01:04:45;2.87;;;2.60;;
8225;SDS011;4154;48.810;9.012;2023-04-03T01:09:41;2.70;;;2.50;;
8225;SDS011;4154;48.810;9.012;2023-04-03T01:14:43;2.40;;;2.20;;
8225;SDS011;4154;48.810;9.012;2023-04-03T01:22:59;2.40;;;2.20;;
8225;SDS011;4154;48.810;9.012;2023-04-03T01:25:45;2.77;;;2.57;;
8225;SDS011;4154;48.810;9.012;2023-04-03T01:28:16;2.53;;;2.33;;
8225;SDS011;4154;48.810;9.012;2023-04-03T01:33:55;2.90;;;2.60;;
8225;SDS011;4154;48.810;9.012;2023-04-03T01:36:25;2.60;;;2.33;;
8225;SDS011;4154;48.810;9.012;2023-04-03T01:38:55;2.73;;;2.10;;
8225;SDS011;4154;48.810;9.012;2023-04-03T01:41:24;2.70;;;2.30;;
8225;SDS011;4154;48.810;9.012;2023-04-03T01:43:50;3.23;;;2.50;;
8225;SDS011;4154;48.810;9.012;2023-04-03T01:46:17;2.60;;;2.37;;
8225;SDS011;4154;48.810;9.012;2023-04-03T01:48:43;3.77;;;2.50;;
8225;SDS011;4154;48.810;9.012;2023-04-03T01:51:10;2.60;;;2.40;;
8225;SDS011;4154;48.810;9.012;2023-04-03T01:53:35;2.50;;;2.30;;
8225;SDS011;4154;48.810;9.012;2023-04-03T01:56:02;2.87;;;2.40;;
8225;SDS011;4154;48.810;9.012;2023-04-03T01:58:28;3.17;;;2.60;;
8225;SDS011;4154;48.810;9.012;2023-04-03T02:00:54;3.03;;;2.70;;
8225;SDS011;4154;48.810;9.012;2023-04-03T02:03:20;2.50;;;2.30;;
8225;SDS011;4154;48.810;9.012;2023-04-03T02:05:46;3.20;;;2.50;;
8225;SDS011;4154;48.810;9.012;2023-04-03T02:08:12;2.50;;;2.30;;
8225;SDS011;4154;48.810;9.012;2023-04-03T02:10:38;2.60;;;2.40;;
8225;SDS011;4154;48.810;9.012;2023-04-03T02:13:05;2.57;;;2.37;;
8225;SDS011;4154;48.810;9.012;2023-04-03T02:15:31;3.37;;;2.37;;
8225;SDS011;4154;48.810;9.012;2023-04-03T02:17:57;3.63;;;2.60;;
8225;SDS011;4154;48.810;9.012;2023-04-03T02:20:23;2.63;;;2.43;;
8225;SDS011;4154;48.810;9.012;2023-04-03T02:22:48;2.57;;;2.23;;
8225;SDS011;4154;48.810;9.012;2023-04-03T02:25:14;2.53;;;2.33;;
8225;SDS011;4154;48.810;9.012;2023-04-03T02:27:40;3.23;;;2.33;;
8225;SDS011;4154;48.810;9.012;2023-04-03T02:30:06;3.07;;;2.63;;
8225;SDS011;4154;48.810;9.012;2023-04-03T02:32:34;2.70;;;2.33;;
8225;SDS011;4154;48.810;9.012;2023-04-03T02:35:00;4.03;;;2.60;;
8225;SDS011;4154;48.810;9.012;2023-04-03T02:37:25;3.40;;;2.60;;
8225;SDS011;4154;48.810;9.012;2023-04-03T02:39:51;2.70;;;2.50;;
8225;SDS011;4154;48.810;9.012;2023-04-03T02:42:17;2.60;;;2.40;;
8225;SDS011;4154;48.810;9.012;2023-04-03T02:44:42;2.70;;;2.50;;
8225;SDS011;4154;48.810;9.012;2023-04-03T02:47:08;2.70;;;2.50;;
8225;SDS011;4154;48.810;9.012;2023-04-03T02:49:34;2.80;;;2.60;;
8225;SDS011;4154;48.810;9.012;2023-04-03T02:52:00;3.10;;;2.70;;
8225;SDS011;4154;48.810;9.012;2023-04-03T02:54:25;2.97;;;2.77;;
8225;SDS011;4154;48.810;9.012;2023-04-03T02:56:53;2.73;;;2.53;;
8225;SDS011;4154;48.810;9.012;2023-04-03T02:59:19;2.77;;;2.57;;
8225;SDS011;4154;48.810;9.012;2023-04-03T03:01:45;2.80;;;2.60;;
8225;SDS011;4154;48.810;9.012;2023-04-03T03:04:11;2.53;;;2.33;;
8225;SDS011;4154;48.810;9.012;2023-04-03T03:06:36;2.60;;;2.40;;
8225;SDS011;4154;48.810;9.012;2023-04-03T03:09:03;2.90;;;2.63;;
8225;SDS011;4154;48.810;9.012;2023-04-03T03:11:29;2.73;;;2.53;;
8225;SDS011;4154;48.810;9.012;2023-04-03T03:13:55;2.63;;;2.43;;
8225;SDS011;4154;48.810;9.012;2023-04-03T03:16:21;2.73;;;2.30;;
8225;SDS011;4154;48.810;9.012;2023-04-03T03:18:47;3.00;;;2.60;;
8225;SDS011;4154;48.810;9.012;2023-04-03T03:21:13;2.57;;;2.37;;
8225;SDS011;4154;48.810;9.012;2023-04-03T03:23:39;3.00;;;2.70;;
8225;SDS011;4154;48.810;9.012;2023-04-03T03:26:06;3.20;;;2.67;;
8225;SDS011;4154;48.810;9.012;2023-04-03T03:28:35;3.93;;;2.77;;
8225;SDS011;4154;48.810;9.012;2023-04-03T03:31:03;2.60;;;2.40;;
8225;SDS011;4154;48.810;9.012;2023-04-03T03:33:29;2.77;;;2.50;;
8225;SDS011;4154;48.810;9.012;2023-04-03T03:35:55;2.83;;;2.63;;
8225;SDS011;4154;48.810;9.012;2023-04-03T03:38:21;2.77;;;2.40;;
8225;SDS011;4154;48.810;9.012;2023-04-03T03:40:48;2.80;;;2.60;;
8225;SDS011;4154;48.810;9.012;2023-04-03T03:43:15;2.70;;;2.50;;
8225;SDS011;4154;48.810;9.012;2023-04-03T03:45:42;2.50;;;2.30;;
8225;SDS011;4154;48.810;9.012;2023-04-03T03:48:08;2.67;;;2.47;;
8225;SDS011;4154;48.810;9.012;2023-04-03T03:50:34;2.40;;;2.20;;
8225;SDS011;4154;48.810;9.012;2023-04-03T03:53:00;2.77;;;2.40;;
8225;SDS011;4154;48.810;9.012;2023-04-03T03:55:26;2.57;;;2.37;;
8225;SDS011;4154;48.810;9.012;2023-04-03T03:57:52;2.80;;;2.50;;
8225;SDS011;4154;48.810;9.012;2023-04-03T04:00:18;2.40;;;2.20;;
8225;SDS011;4154;48.810;9.012;2023-04-03T04:02:45;2.27;;;2.10;;
8225;SDS011;4154;48.810;9.012;2023-04-03T04:05:10;2.50;;;2.10;;
8225;SDS011;4154;48.810;9.012;2023-04-03T04:07:36;2.23;;;2.03;;
8225;SDS011;4154;48.810;9.012;2023-04-03T04:10:02;2.30;;;2.10;;
8225;SDS011;4154;48.810;9.012;2023-04-03T04:12:29;2.40;;;2.20;;
8225;SDS011;4154;48.810;9.012;2023-04-03T04:14:55;3.33;;;2.23;;
8225;SDS011;4154;48.810;9.012;2023-04-03T04:17:21;3.20;;;2.23;;
8225;SDS011;4154;48.810;9.012;2023-04-03T04:19:46;2.87;;;2.27;;
8225;SDS011;4154;48.810;9.012;2023-04-03T04:22:12;3.13;;;2.13;;
8225;SDS011;4154;48.810;9.012;2023-04-03T04:24:37;2.40;;;2.20;;
8225;SDS011;4154;48.810;9.012;2023-04-03T04:27:04;2.60;;;2.30;;
8225;SDS011;4154;48.810;9.012;2023-04-03T04:29:29;2.40;;;2.20;;
8225;SDS011;4154;48.810;9.012;2023-04-03T04:32:00;2.77;;;2.50;;
8225;SDS011;4154;48.810;9.012;2023-04-03T04:34:29;2.47;;;2.27;;
8225;SDS011;4154;48.810;9.012;2023-04-03T04:36:55;3.10;;;2.40;;
8225;SDS011;4154;48.810;9.012;2023-04-03T04:39:21;2.70;;;2.50;;
8225;SDS011;4154;48.810;9.012;2023-04-03T04:41:47;2.50;;;2.30;;
8225;SDS011;4154;48.810;9.012;2023-04-03T04:44:13;2.70;;;2.50;;
8225;SDS011;4154;48.810;9.012;2023-04-03T04:46:38;2.60;;;2.40;;
8225;SDS011;4154;48.810;9.012;2023-04-03T04:49:04;2.30;;;2.10;;
8225;SDS011;4154;48.810;9.012;2023-04-03T04:51:30;2.47;;;2.10;;
8225;SDS011;4154;48.810;9.012;2023-04-03T04:53:56;2.33;;;2.07;;
8225;SDS011;4154;48.810;9.012;2023-04-03T04:56:22;2.30;;;2.10;;
8225;SDS011;4154;48.810;9.012;2023-04-03T04:58:47;3.27;;;2.30;;
8225;SDS011;4154;48.810;9.012;2023-04-03T05:01:13;2.40;;;2.20;;
8225;SDS011;4154;48.810;9.012;2023-04-03T05:03:39;2.77;;;2.23;;
8225;SDS011;4154;48.810;9.012;2023-04-03T05:06:06;1.93;;;1.83;;
8225;SDS011;4154;48.810;9.012;2023-04-03T05:08:32;2.30;;;2.10;;
8225;SDS011;4154;48.810;9.012;2023-04-03T05:10:58;2.27;;;1.97;;
8225;SDS011;4154;48.810;9.012;2023-04-03T05:13:24;2.53;;;2.23;;
8225;SDS011;4154;48.810;9.012;2023-04-03T05:15:51;2.40;;;2.20;;
8225;SDS011;4154;48.810;9.012;2023-04-03T05:18:17;2.40;;;2.20;;
8225;SDS011;4154;48.810;9.012;2023-04-03T05:20:43;2.10;;;2.00;;
8225;SDS011;4154;48.810;9.012;2023-04-03T05:23:10;2.20;;;2.00;;
8225;SDS011;4154;48.810;9.012;2023-04-03T05:25:39;2.17;;;1.97;;
8225;SDS011;4154;48.810;9.012;2023-04-03T05:28:05;2.23;;;2.00;;
8225;SDS011;4154;48.810;9.012;2023-04-03T05:30:32;2.03;;;1.93;;
8225;SDS011;4154;48.810;9.012;2023-04-03T05:32:59;2.20;;;2.00;;
8225;SDS011;4154;48.810;9.012;2023-04-03T05:35:25;1.90;;;1.80;;
8225;SDS011;4154;48.810;9.012;2023-04-03T05:37:51;2.30;;;2.10;;
8225;SDS011;4154;48.810;9.012;2023-04-03T05:40:17;2.53;;;2.20;;
8225;SDS011;4154;48.810;9.012;2023-04-03T05:42:44;2.13;;;1.93;;
8225;SDS011;4154;48.810;9.012;2023-04-03T05:45:13;2.17;;;2.07;;
8225;SDS011;4154;48.810;9.012;2023-04-03T05:47:39;2.13;;;1.93;;
8225;SDS011;4154;48.810;9.012;2023-04-03T05:50:05;2.40;;;2.20;;
8225;SDS011;4154;48.810;9.012;2023-04-03T05:52:33;1.83;;;1.73;;
8225;SDS011;4154;48.810;9.012;2023-04-03T05:55:02;2.77;;;2.40;;
8225;SDS011;4154;48.810;9.012;2023-04-03T05:57:29;2.80;;;2.20;;
8225;SDS011;4154;48.810;9.012;2023-04-03T05:59:55;2.63;;;2.27;;
8225;SDS011;4154;48.810;9.012;2023-04-03T06:02:22;2.50;;;2.13;;
8225;SDS011;4154;48.810;9.012;2023-04-03T06:04:49;2.50;;;2.07;;
8225;SDS011;4154;48.810;9.012;2023-04-03T06:07:17;2.67;;;2.03;;
8225;SDS011;4154;48.810;9.012;2023-04-03T06:09:47;2.67;;;2.27;;
8225;SDS011;4154;48.810;9.012;2023-04-03T06:12:14;2.50;;;2.23;;
8225;SDS011;4154;48.810;9.012;2023-04-03T06:14:41;2.90;;;2.13;;
8225;SDS011;4154;48.810;9.012;2023-04-03T06:17:07;2.93;;;2.10;;
8225;SDS011;4154;48.810;9.012;2023-04-03T06:19:34;2.33;;;2.10;;
8225;SDS011;4154;48.810;9.012;2023-04-03T06:22:01;4.43;;;2.20;;
8225;SDS011;4154;48.810;9.012;2023-04-03T06:24:28;2.30;;;2.10;;
8225;SDS011;4154;48.810;9.012;2023-04-03T06:26:55;3.60;;;2.50;;
8225;SDS011;4154;48.810;9.012;2023-04-03T06:29:22;2.53;;;2.30;;
8225;SDS011;4154;48.810;9.012;2023-04-03T06:31:49;2.50;;;2.20;;
8225;SDS011;4154;48.810;9.012;2023-04-03T06:34:15;2.20;;;2.00;;
8225;SDS011;4154;48.810;9.012;2023-04-03T06:36:43;2.00;;;1.90;;
8225;SDS011;4154;48.810;9.012;2023-04-03T06:39:14;2.53;;;2.27;;
8225;SDS011;4154;48.810;9.012;2023-04-03T06:41:45;2.87;;;2.67;;
8225;SDS011;4154;48.810;9.012;2023-04-03T06:44:11;3.03;;;2.20;;
8225;SDS011;4154;48.810;9.012;2023-04-03T06:46:40;2.67;;;2.17;;
8225;SDS011;4154;48.810;9.012;2023-04-03T06:49:07;2.67;;;2.30;;
8225;SDS011;4154;48.810;9.012;2023-04-03T06:51:34;3.53;;;2.30;;
8225;SDS011;4154;48.810;9.012;2023-04-03T06:54:00;2.80;;;1.90;;
8225;SDS011;4154;48.810;9.012;2023-04-03T06:56:28;2.27;;;2.10;;
8225;SDS011;4154;48.810;9.012;2023-04-03T06:58:54;3.63;;;2.20;;
8225;SDS011;4154;48.810;9.012;2023-04-03T07:01:22;2.63;;;2.10;;
8225;SDS011;4154;48.810;9.012;2023-04-03T07:03:51;2.40;;;2.20;;
8225;SDS011;4154;48.810;9.012;2023-04-03T07:06:18;3.53;;;2.17;;
8225;SDS011;4154;48.810;9.012;2023-04-03T07:08:44;2.20;;;2.00;;
8225;SDS011;4154;48.810;9.012;2023-04-03T07:11:12;2.47;;;2.20;;
8225;SDS011;4154;48.810;9.012;2023-04-03T07:13:38;2.60;;;2.27;;
8225;SDS011;4154;48.810;9.012;2023-04-03T07:16:05;3.07;;;2.50;;
8225;SDS011;4154;48.810;9.012;2023-04-03T07:18:32;3.90;;;2.30;;
8225;SDS011;4154;48.810;9.012;2023-04-03T07:20:59;2.20;;;2.00;;
8225;SDS011;4154;48.810;9.012;2023-04-03T07:23:25;3.27;;;2.33;;
8225;SDS011;4154;48.810;9.012;2023-04-03T07:25:52;2.50;;;2.30;;
8225;SDS011;4154;48.810;9.012;2023-04-03T07:28:19;2.77;;;2.40;;
8225;SDS011;4154;48.810;9.012;2023-04-03T07:30:51;3.20;;;2.30;;
8225;SDS011;4154;48.810;9.012;2023-04-03T07:33:24;2.67;;;2.47;;
8225;SDS011;4154;48.810;9.012;2023-04-03T07:35:51;2.50;;;2.17;;
8225;SDS011;4154;48.810;9.012;2023-04-03T07:38:17;2.40;;;2.20;;
8225;SDS011;4154;48.810;9.012;2023-04-03T07:40:47;2.80;;;2.50;;
8225;SDS011;4154;48.810;9.012;2023-04-03T07:43:16;2.77;;;2.27;;
8225;SDS011;4154;48.810;9.012;2023-04-03T07:45:43;2.50;;;2.10;;
8225;SDS011;4154;48.810;9.012;2023-04-03T07:48:10;2.90;;;2.20;;
8225;SDS011;4154;48.810;9.012;2023-04-03T07:50:39;2.77;;;2.50;;
8225;SDS011;4154;48.810;9.012;2023-04-03T07:53:05;2.57;;;2.20;;
8225;SDS011;4154;48.810;9.012;2023-04-03T07:55:32;3.20;;;2.23;;
8225;SDS011;4154;48.810;9.012;2023-04-03T07:57:58;3.00;;;2.30;;
8225;SDS011;4154;48.810;9.012;2023-04-03T08:00:23;2.47;;;2.27;;
8225;SDS011;4154;48.810;9.012;2023-04-03T08:02:50;2.93;;;2.37;;
8225;SDS011;4154;48.810;9.012;2023-04-03T08:05:19;3.90;;;2.57;;
8225;SDS011;4154;48.810;9.012;2023-04-03T08:07:46;2.50;;;2.30;;
8225;SDS011;4154;48.810;9.012;2023-04-03T08:10:13;2.50;;;2.30;;
8225;SDS011;4154;48.810;9.012;2023-04-03T08:12:39;2.37;;;2.17;;
8225;SDS011;4154;48.810;9.012;2023-04-03T08:15:07;2.73;;;2.13;;
8225;SDS011;4154;48.810;9.012;2023-04-03T08:17:34;2.80;;;2.27;;
8225;SDS011;4154;48.810;9.012;2023-04-03T08:20:00;3.60;;;2.30;;
8225;SDS011;4154;48.810;9.012;2023-04-03T08:22:27;2.63;;;2.43;;
8225;SDS011;4154;48.810;9.012;2023-04-03T08:24:53;4.97;;;2.60;;
8225;SDS011;4154;48.810;9.012;2023-04-03T08:27:19;4.00;;;2.40;;
8225;SDS011;4154;48.810;9.012;2023-04-03T08:29:44;3.40;;;2.30;;
8225;SDS011;4154;48.810;9.012;2023-04-03T08:32:10;4.13;;;2.50;;
8225;SDS011;4154;48.810;9.012;2023-04-03T08:34:36;2.60;;;2.40;;
8225;SDS011;4154;48.810;9.012;2023-04-03T08:37:04;3.13;;;2.40;;
8225;SDS011;4154;48.810;9.012;2023-04-03T08:39:30;2.57;;;2.27;;
8225;SDS011;4154;48.810;9.012;2023-04-03T08:41:57;4.13;;;2.33;;
8225;SDS011;4154;48.810;9.012;2023-04-03T08:47:20;4.00;;;2.33;;
8225;SDS011;4154;48.810;9.012;2023-04-03T08:50:04;3.57;;;2.47;;
8225;SDS011;4154;48.810;9.012;2023-04-03T08:52:44;4.50;;;2.47;;
8225;SDS011;4154;48.810;9.012;2023-04-03T08:58:01;3.30;;;2.37;;
8225;SDS011;4154;48.810;9.012;2023-04-03T09:00:37;3.23;;;2.40;;
8225;SDS011;4154;48.810;9.012;2023-04-03T09:03:15;2.40;;;2.20;;
8225;SDS011;4154;48.810;9.012;2023-04-03T09:05:49;3.07;;;2.50;;
8225;SDS011;4154;48.810;9.012;2023-04-03T09:08:31;3.37;;;2.30;;
8225;SDS011;4154;48.810;9.012;2023-04-03T09:14:02;2.93;;;2.53;;
8225;SDS011;4154;48.810;9.012;2023-04-03T09:16:59;4.40;;;2.40;;
8225;SDS011;4154;48.810;9.012;2023-04-03T09:19:36;2.80;;;2.23;;
8225;SDS011;4154;48.810;9.012;2023-04-03T09:25:08;3.73;;;2.60;;
8225;SDS011;4154;48.810;9.012;2023-04-03T09:27:42;2.87;;;2.40;;
8225;SDS011;4154;48.810;9.012;2023-04-03T09:30:18;2.47;;;2.20;;
8225;SDS011;4154;48.810;9.012;2023-04-03T09:32:51;2.53;;;2.20;;
8225;SDS011;4154;48.810;9.012;2023-04-03T09:40:37;2.37;;;2.10;;
8225;SDS011;4154;48.810;9.012;2023-04-03T09:43:25;2.30;;;2.10;;
8225;SDS011;4154;48.810;9.012;2023-04-03T09:45:56;2.93;;;1.93;;
8225;SDS011;4154;48.810;9.012;2023-04-03T09:48:57;3.00;;;2.20;;
8225;SDS011;4154;48.810;9.012;2023-04-03T09:51:29;2.30;;;2.10;;
8225;SDS011;4154;48.810;9.012;2023-04-03T09:53:56;3.87;;;2.40;;
8225;SDS011;4154;48.810;9.012;2023-04-03T09:56:24;3.40;;;2.07;;
8225;SDS011;4154;48.810;9.012;2023-04-03T10:01:26;2.23;;;1.97;;
8225;SDS011;4154;48.810;9.012;2023-04-03T10:06:35;1.67;;;1.43;;
8225;SDS011;4154;48.810;9.012;2023-04-03T10:09:12;3.13;;;1.87;;
8225;SDS011;4154;48.810;9.012;2023-04-03T10:11:57;1.70;;;1.60;;
8225;SDS011;4154;48.810;9.012;2023-04-03T10:14:29;1.70;;;1.60;;
8225;SDS011;4154;48.810;9.012;2023-04-03T10:17:09;2.77;;;1.70;;
8225;SDS011;4154;48.810;9.012;2023-04-03T10:20:23;3.13;;;1.73;;
8225;SDS011;4154;48.810;9.012;2023-04-03T10:23:27;2.80;;;1.70;;
8225;SDS011;4154;48.810;9.012;2023-04-03T10:26:33;1.87;;;1.53;;
8225;SDS011;4154;48.810;9.012;2023-04-03T10:29:42;2.23;;;1.77;;
8225;SDS011;4154;48.810;9.012;2023-04-03T10:41:57;1.90;;;1.57;;
8225;SDS011;4154;48.810;9.012;2023-04-03T10:53:47;4.10;;;1.77;;
8225;SDS011;4154;48.810;9.012;2023-04-03T10:56:29;1.90;;;1.73;;
8225;SDS011;4154;48.810;9.012;2023-04-03T11:02:26;1.60;;;1.50;;
8225;SDS011;4154;48.810;9.012;2023-04-03T11:05:08;1.80;;;1.47;;
8225;SDS011;4154;48.810;9.012;2023-04-03T11:07:50;1.80;;;1.67;;
8225;SDS011;4154;48.810;9.012;2023-04-03T11:10:22;1.60;;;1.50;;
8225;SDS011;4154;48.810;9.012;2023-04-03T11:12:58;1.97;;;1.60;;
8225;SDS011;4154;48.810;9.012;2023-04-03T11:15:31;1.83;;;1.60;;
8225;SDS011;4154;48.810;9.012;2023-04-03T11:17:59;2.87;;;1.60;;
8225;SDS011;4154;48.810;9.012;2023-04-03T11:20:44;2.70;;;1.60;;
8225;SDS011;4154;48.810;9.012;2023-04-03T11:23:24;2.73;;;1.60;;
8225;SDS011;4154;48.810;9.012;2023-04-03T11:25:53;2.00;;;1.50;;
8225;SDS011;4154;48.810;9.012;2023-04-03T11:28:24;2.80;;;1.60;;
8225;SDS011;4154;48.810;9.012;2023-04-03T11:38:43;2.07;;;1.47;;
8225;SDS011;4154;48.810;9.012;2023-04-03T11:41:13;1.40;;;1.30;;
8225;SDS011;4154;48.810;9.012;2023-04-03T11:43:42;1.80;;;1.50;;
8225;SDS011;4154;48.810;9.012;2023-04-03T11:46:49;2.33;;;1.60;;
8225;SDS011;4154;48.810;9.012;2023-04-03T12:13:42;3.20;;;1.83;;
8225;SDS011;4154;48.810;9.012;2023-04-03T12:16:30;2.80;;;2.00;;
8225;SDS011;4154;48.810;9.012;2023-04-03T12:22:10;2.67;;;1.60;;
8225;SDS011;4154;48.810;9.012;2023-04-03T12:24:40;2.13;;;1.77;;
8225;SDS011;4154;48.810;9.012;2023-04-03T12:27:27;1.83;;;1.50;;
8225;SDS011;4154;48.810;9.012;2023-04-03T12:35:31;2.13;;;1.63;;
8225;SDS011;4154;48.810;9.012;2023-04-03T12:47:34;1.90;;;1.50;;
8225;SDS011;4154;48.810;9.012;2023-04-03T12:50:03;1.40;;;1.30;;
8225;SDS011;4154;48.810;9.012;2023-04-03T12:52:59;2.80;;;1.50;;
8225;SDS011;4154;48.810;9.012;2023-04-03T12:55:30;1.87;;;1.60;;
8225;SDS011;4154;48.810;9.012;2023-04-03T12:57:56;2.27;;;1.50;;
8225;SDS011;4154;48.810;9.012;2023-04-03T13:00:38;1.50;;;1.40;;
8225;SDS011;4154;48.810;9.012;2023-04-03T13:03:05;2.07;;;1.60;;
8225;SDS011;4154;48.810;9.012;2023-04-03T13:05:47;3.70;;;1.73;;
8225;SDS011;4154;48.810;9.012;2023-04-03T13:08:13;1.53;;;1.33;;
8225;SDS011;4154;48.810;9.012;2023-04-03T13:10:54;2.80;;;1.57;;
8225;SDS011;4154;48.810;9.012;2023-04-03T13:13:25;3.30;;;1.70;;
8225;SDS011;4154;48.810;9.012;2023-04-03T13:15:52;2.80;;;1.50;;
8225;SDS011;4154;48.810;9.012;2023-04-03T13:20:59;3.63;;;1.60;;
8225;SDS011;4154;48.810;9.012;2023-04-03T13:23:29;1.97;;;1.80;;
8225;SDS011;4154;48.810;9.012;2023-04-03T13:25:56;2.47;;;1.80;;
8225;SDS011;4154;48.810;9.012;2023-04-03T13:28:28;2.27;;;1.80;;
8225;SDS011;4154;48.810;9.012;2023-04-03T13:33:35;2.00;;;1.63;;
8225;SDS011;4154;48.810;9.012;2023-04-03T13:36:26;1.87;;;1.57;;
8225;SDS011;4154;48.810;9.012;2023-04-03T13:38:59;1.57;;;1.47;;
8225;SDS011;4154;48.810;9.012;2023-04-03T13:41:40;2.20;;;2.00;;
8225;SDS011;4154;48.810;9.012;2023-04-03T13:44:15;2.23;;;1.70;;
8225;SDS011;4154;48.810;9.012;2023-04-03T13:46:53;2.63;;;1.80;;
8225;SDS011;4154;48.810;9.012;2023-04-03T13:49:40;2.00;;;1.70;;
8225;SDS011;4154;48.810;9.012;2023-04-03T13:55:15;1.67;;;1.40;;
8225;SDS011;4154;48.810;9.012;2023-04-03T13:57:59;1.60;;;1.50;;
8225;SDS011;4154;48.810;9.012;2023-04-03T14:05:51;2.40;;;1.83;;
8225;SDS011;4154;48.810;9.012;2023-04-03T14:08:18;2.20;;;1.40;;
8225;SDS011;4154;48.810;9.012;2023-04-03T14:10:45;2.50;;;1.73;;
8225;SDS011;4154;48.810;9.012;2023-04-03T14:13:16;4.10;;;1.97;;
8225;SDS011;4154;48.810;9.012;2023-04-03T14:15:45;2.40;;;1.43;;
8225;SDS011;4154;48.810;9.012;2023-04-03T14:18:14;2.37;;;2.17;;
8225;SDS011;4154;48.810;9.012;2023-04-03T14:20:43;2.70;;;1.60;;
8225;SDS011;4154;48.810;9.012;2023-04-03T14:23:09;2.37;;;1.60;;
8225;SDS011;4154;48.810;9.012;2023-04-03T14:25:35;2.60;;;1.60;;
8225;SDS011;4154;48.810;9.012;2023-04-03T14:28:14;1.77;;;1.60;;
8225;SDS011;4154;48.810;9.012;2023-04-03T14:30:47;1.80;;;1.70;;
8225;SDS011;4154;48.810;9.012;2023-04-03T14:33:15;1.90;;;1.70;;
8225;SDS011;4154;48.810;9.012;2023-04-03T14:35:45;2.03;;;1.70;;
8225;SDS011;4154;48.810;9.012;2023-04-03T14:38:25;3.13;;;1.80;;
8225;SDS011;4154;48.810;9.012;2023-04-03T14:40:55;4.03;;;1.73;;
8225;SDS011;4154;48.810;9.012;2023-04-03T14:43:21;2.03;;;1.70;;
8225;SDS011;4154;48.810;9.012;2023-04-03T14:45:48;2.00;;;1.80;;
8225;SDS011;4154;48.810;9.012;2023-04-03T14:48:17;2.27;;;1.77;;
8225;SDS011;4154;48.810;9.012;2023-04-03T14:50:47;3.00;;;1.60;;
8225;SDS011;4154;48.810;9.012;2023-04-03T14:53:17;2.43;;;1.70;;
8225;SDS011;4154;48.810;9.012;2023-04-03T14:55:47;1.80;;;1.70;;
8225;SDS011;4154;48.810;9.012;2023-04-03T14:58:15;1.93;;;1.63;;
8225;SDS011;4154;48.810;9.012;2023-04-03T15:00:44;2.03;;;1.63;;
8225;SDS011;4154;48.810;9.012;2023-04-03T15:03:14;1.80;;;1.50;;
8225;SDS011;4154;48.810;9.012;2023-04-03T15:05:43;3.00;;;1.50;;
8225;SDS011;4154;48.810;9.012;2023-04-03T15:08:18;2.37;;;1.67;;
8225;SDS011;4154;48.810;9.012;2023-04-03T15:10:54;2.43;;;1.60;;
8225;SDS011;4154;48.810;9.012;2023-04-03T15:13:21;3.83;;;1.50;;
8225;SDS011;4154;48.810;9.012;2023-04-03T15:15:48;2.53;;;1.50;;
8225;SDS011;4154;48.810;9.012;2023-04-03T15:18:20;2.27;;;1.67;;
8225;SDS011;4154;48.810;9.012;2023-04-03T15:20:51;1.60;;;1.50;;
8225;SDS011;4154;48.810;9.012;2023-04-03T15:23:17;1.77;;;1.47;;
8225;SDS011;4154;48.810;9.012;2023-04-03T15:25:47;1.40;;;1.30;;
8225;SDS011;4154;48.810;9.012;2023-04-03T15:28:19;1.77;;;1.40;;
8225;SDS011;4154;48.810;9.012;2023-04-03T15:30:53;5.17;;;1.60;;
8225;SDS011;4154;48.810;9.012;2023-04-03T15:33:19;2.57;;;1.60;;
8225;SDS011;4154;48.810;9.012;2023-04-03T15:35:45;1.60;;;1.50;;
8225;SDS011;4154;48.810;9.012;2023-04-03T15:38:11;1.70;;;1.60;;
8225;SDS011;4154;48.810;9.012;2023-04-03T15:40:37;2.50;;;1.50;;
8225;SDS011;4154;48.810;9.012;2023-04-03T15:43:04;3.23;;;1.70;;
8225;SDS011;4154;48.810;9.012;2023-04-03T15:45:31;2.30;;;1.50;;
8225;SDS011;4154;48.810;9.012;2023-04-03T15:47:59;1.87;;;1.60;;
8225;SDS011;4154;48.810;9.012;2023-04-03T15:50:26;2.07;;;1.60;;
8225;SDS011;4154;48.810;9.012;2023-04-03T15:52:52;2.03;;;1.70;;
8225;SDS011;4154;48.810;9.012;2023-04-03T15:55:23;2.20;;;1.80;;
8225;SDS011;4154;48.810;9.012;2023-04-03T15:57:51;2.17;;;1.80;;
8225;SDS011;4154;48.810;9.012;2023-04-03T16:00:18;2.13;;;1.60;;
8225;SDS011;4154;48.810;9.012;2023-04-03T16:02:45;2.57;;;1.80;;
8225;SDS011;4154;48.810;9.012;2023-04-03T16:05:13;1.90;;;1.70;;
8225;SDS011;4154;48.810;9.012;2023-04-03T16:07:42;1.90;;;1.70;;
8225;SDS011;4154;48.810;9.012;2023-04-03T16:10:09;2.80;;;1.77;;
8225;SDS011;4154;48.810;9.012;2023-04-03T16:12:35;2.70;;;1.80;;
8225;SDS011;4154;48.810;9.012;2023-04-03T16:15:01;2.40;;;2.20;;
8225;SDS011;4154;48.810;9.012;2023-04-03T16:17:28;2.93;;;1.97;;
8225;SDS011;4154;48.810;9.012;2023-04-03T16:19:56;4.57;;;2.10;;
8225;SDS011;4154;48.810;9.012;2023-04-03T16:22:23;1.93;;;1.60;;
8225;SDS011;4154;48.810;9.012;2023-04-03T16:24:51;2.00;;;1.80;;
8225;SDS011;4154;48.810;9.012;2023-04-03T16:27:16;1.90;;;1.70;;
8225;SDS011;4154;48.810;9.012;2023-04-03T16:29:42;2.57;;;2.03;;
8225;SDS011;4154;48.810;9.012;2023-04-03T16:32:07;4.53;;;1.97;;
8225;SDS011;4154;48.810;9.012;2023-04-03T16:34:34;2.13;;;1.57;;
8225;SDS011;4154;48.810;9.012;2023-04-03T16:36:59;1.70;;;1.60;;
8225;SDS011;4154;48.810;9.012;2023-04-03T16:39:25;2.07;;;1.70;;
8225;SDS011;4154;48.810;9.012;2023-04-03T16:41:51;3.00;;;1.70;;
8225;SDS011;4154;48.810;9.012;2023-04-03T16:44:17;2.20;;;2.00;;
8225;SDS011;4154;48.810;9.012;2023-04-03T16:46:43;1.93;;;1.70;;
8225;SDS011;4154;48.810;9.012;2023-04-03T16:49:09;1.90;;;1.60;;
8225;SDS011;4154;48.810;9.012;2023-04-03T16:51:34;2.10;;;1.50;;
8225;SDS011;4154;48.810;9.012;2023-04-03T16:54:00;2.13;;;1.80;;
8225;SDS011;4154;48.810;9.012;2023-04-03T16:56:26;1.90;;;1.80;;
8225;SDS011;4154;48.810;9.012;2023-04-03T16:58:52;1.80;;;1.70;;
8225;SDS011;4154;48.810;9.012;2023-04-03T17:01:20;1.90;;;1.70;;
8225;SDS011;4154;48.810;9.012;2023-04-03T17:03:47;3.10;;;1.70;;
8225;SDS011;4154;48.810;9.012;2023-04-03T17:06:18;2.23;;;1.77;;
8225;SDS011;4154;48.810;9.012;2023-04-03T17:08:46;2.70;;;2.00;;
8225;SDS011;4154;48.810;9.012;2023-04-03T17:11:14;2.00;;;1.77;;
8225;SDS011;4154;48.810;9.012;2023-04-03T17:13:40;2.03;;;1.60;;
8225;SDS011;4154;48.810;9.012;2023-04-03T17:16:07;2.33;;;1.87;;
8225;SDS011;4154;48.810;9.012;2023-04-03T17:18:37;2.10;;;1.80;;
8225;SDS011;4154;48.810;9.012;2023-04-03T17:21:04;3.03;;;2.10;;
8225;SDS011;4154;48.810;9.012;2023-04-03T17:23:31;2.20;;;1.77;;
8225;SDS011;4154;48.810;9.012;2023-04-03T17:25:59;3.60;;;2.07;;
8225;SDS011;4154;48.810;9.012;2023-04-03T17:28:27;3.13;;;1.90;;
8225;SDS011;4154;48.810;9.012;2023-04-03T17:30:59;2.47;;;2.10;;
8225;SDS011;4154;48.810;9.012;2023-04-03T17:33:26;2.10;;;1.90;;